LiveATC.Net - Listen to live air traffic control over the Internet!


ICAO: YSCN  IATA: CDU   Airport: Camden General Airport
City: Camden   State/Province: New South Wales
Country: Australia   Continent: Oceania
YSSY METAR Weather: YSSY 240513Z 29016G26KT CAVOK 28/04 Q1008
YSCN Flight Activity (FlightAware)
YSCN Webcam:  (Airport Webcams) 

YSCN Tower/CTAF
Feed Status: UP   Listeners: 1
Listen in your browser - HTML5 player (in browser, HTML5)
Click here to listen with your own player (launches your MP3 player)
Archive Access: YSCN Tower/CTAF
FacilityFrequency
Camden Tower/CTAF120.100

NOTICE

Unauthorized use prohibited. See LiveATC.net Terms of Service


Airport/ARTCC Code
Frequency Search
(e.g., 124.400, 128.75)
Site-wide search
 


Browse Feeds
Top 50 Feeds
HF Oceanic Feeds
Coverage Map
Bad Weather Areas

LiveATC FAQ
Offer LiveATC feed
Contact LiveATC.net
Press Inquiries

LiveATC on iPhone
LiveATC on Android

Windows Phone
Windows 8/10

LiveATC Mobile
(Mobile browser)

ATC Audio Archives
Interesting Recordings

LiveATC Forums


Home Page
About LiveATC.net
Make a Donation
Terms of Use
Privacy Policy

Canadian Air Freqs

AIRMETs/SIGMETs

FAA Airport Status
NAS Status
Arrival Demand


Server Software By:
Icecast.org
Liquidsoap